Canals, Argentina
Current Conditions -  °F | °C
As of 5:00 PM on Tuesday 25 Nov 2014 (Local Time) from SAOC Reporting Station
Clear Clear  
Wind Chill: 79°   Ceiling: Unl
Heat Index: 79°   Visibility: 6mi
Dew Point: 41°   Wind: 15mph
Humidity: 26%   Direction: 50°NE
Pressure: 29.83"   Gusts: NA
Location:  33.55°S, 62.88°W
Report Text: SAOC 252000Z 05013KT CAVOK 26/05 Q1010
Loading
Personal Weather Stations






























Interactive Weather Map New forecast layout! Learn more

10-Day Weather Forecast

Advertisements
Track Severe Weather on mobile